createdAt,value
2018-05-03T00:00:07.118Z,13.37
2018-05-03T00:01:07.173Z,13.38
2018-05-03T00:02:07.278Z,13.36
2018-05-03T00:03:07.262Z,13.36
2018-05-03T00:04:07.310Z,13.36
2018-05-03T00:05:07.376Z,13.33
2018-05-03T00:06:07.407Z,13.41
2018-05-03T00:07:07.478Z,13.43
2018-05-03T00:08:07.504Z,13.46
2018-05-03T00:09:07.552Z,13.40
2018-05-03T00:10:07.603Z,13.49
2018-05-03T00:11:07.674Z,13.54
2018-05-03T00:12:07.699Z,13.49
2018-05-03T00:13:07.745Z,13.55
2018-05-03T00:14:07.793Z,13.56
2018-05-03T00:15:07.842Z,13.52
2018-05-03T00:16:07.921Z,13.49
2018-05-03T00:17:07.939Z,13.51
2018-05-03T00:18:07.998Z,13.47
2018-05-03T00:19:08.039Z,13.49
2018-05-03T00:20:08.088Z,13.38
2018-05-03T00:21:08.162Z,13.46
2018-05-03T00:22:08.180Z,13.37
2018-05-03T00:23:08.229Z,13.33
2018-05-03T00:24:08.279Z,13.36
2018-05-03T00:25:08.331Z,13.37
2018-05-03T00:26:08.404Z,13.37
2018-05-03T00:27:08.430Z,13.36
2018-05-03T00:28:08.473Z,13.29
2018-05-03T00:29:08.521Z,13.33
2018-05-03T00:30:08.569Z,13.29
2018-05-03T00:31:08.641Z,13.33
2018-05-03T00:32:08.669Z,13.36
2018-05-03T00:33:08.755Z,13.30
2018-05-03T00:34:08.764Z,13.36
2018-05-03T00:35:08.813Z,13.29
2018-05-03T00:36:08.880Z,13.27
2018-05-03T00:37:08.914Z,13.29
2018-05-03T00:38:08.979Z,13.20
2018-05-03T00:39:09.005Z,13.21
2018-05-03T00:40:09.054Z,13.18
2018-05-03T00:41:09.104Z,13.20
2018-05-03T00:42:09.152Z,13.15
2018-05-03T00:43:09.222Z,13.09
2018-05-03T00:44:09.246Z,13.15
2018-05-03T00:45:09.298Z,13.14
2018-05-03T00:46:09.346Z,13.04
2018-05-03T00:47:09.391Z,13.09
2018-05-03T00:48:09.478Z,13.09
2018-05-03T00:49:09.491Z,13.17
2018-05-03T00:50:09.540Z,13.24
2018-05-03T00:51:09.586Z,13.29
2018-05-03T00:52:09.634Z,13.37
2018-05-03T00:53:09.704Z,13.32
2018-05-03T00:54:09.753Z,13.36
2018-05-03T00:55:09.778Z,13.32
2018-05-03T00:56:09.828Z,13.32
2018-05-03T00:57:09.881Z,13.40
2018-05-03T00:58:09.923Z,13.37
2018-05-03T00:59:09.995Z,13.36
2018-05-03T01:00:10.020Z,13.36
2018-05-03T01:01:10.070Z,13.32
2018-05-03T01:02:10.116Z,13.38
2018-05-03T01:03:10.164Z,13.33
2018-05-03T01:04:10.237Z,13.37
2018-05-03T01:05:10.262Z,13.30
2018-05-03T01:06:10.313Z,13.33
2018-05-03T01:07:10.358Z,13.24
2018-05-03T01:08:10.407Z,13.24
2018-05-03T01:09:10.482Z,13.30
2018-05-03T01:10:10.526Z,13.17
2018-05-03T01:11:10.555Z,13.27
2018-05-03T01:12:10.600Z,13.21
2018-05-03T01:13:10.647Z,13.21
2018-05-03T01:14:10.703Z,13.20
2018-05-03T01:15:10.771Z,13.21
2018-05-03T01:16:10.796Z,13.18
2018-05-03T01:17:10.842Z,13.21
2018-05-03T01:18:10.889Z,13.06
2018-05-03T01:19:10.940Z,13.09
2018-05-03T01:20:11.028Z,13.20
2018-05-03T01:21:11.035Z,13.12
2018-05-03T01:22:11.083Z,13.18
2018-05-03T01:23:11.136Z,13.22
2018-05-03T01:24:11.180Z,13.20
2018-05-03T01:25:11.259Z,13.18
2018-05-03T01:26:11.277Z,13.27
2018-05-03T01:27:11.324Z,13.21
2018-05-03T01:28:11.372Z,13.25
2018-05-03T01:29:11.423Z,13.24
2018-05-03T01:30:11.498Z,13.22
2018-05-03T01:31:11.521Z,13.25
2018-05-03T01:32:11.568Z,13.27
2018-05-03T01:33:11.616Z,13.33
2018-05-03T01:34:11.662Z,13.33
2018-05-03T01:35:11.754Z,13.32
2018-05-03T01:36:11.760Z,13.21
2018-05-03T01:37:11.813Z,13.22
2018-05-03T01:38:11.855Z,13.21
2018-05-03T01:39:11.903Z,13.22
2018-05-03T01:40:11.978Z,13.21
2018-05-03T01:41:12.025Z,13.22
2018-05-03T01:42:12.051Z,13.18
2018-05-03T01:43:12.096Z,13.22
2018-05-03T01:44:12.144Z,13.15
2018-05-03T01:45:12.193Z,13.04
2018-05-03T01:46:12.277Z,13.00
2018-05-03T01:47:12.289Z,12.93
2018-05-03T01:48:12.348Z,13.00
2018-05-03T01:49:12.385Z,13.00
2018-05-03T01:50:12.433Z,12.99
2018-05-03T01:51:12.510Z,12.95
2018-05-03T01:52:12.533Z,12.97
2018-05-03T01:53:12.583Z,12.82
2018-05-03T01:54:12.626Z,12.81
2018-05-03T01:55:12.674Z,12.96
2018-05-03T01:56:12.754Z,12.93
2018-05-03T01:57:12.772Z,12.95
2018-05-03T01:58:12.822Z,13.00
2018-05-03T01:59:12.868Z,12.92
2018-05-03T02:00:12.917Z,13.00
2018-05-03T02:01:12.989Z,13.00
2018-05-03T02:02:13.014Z,13.03
2018-05-03T02:03:13.075Z,12.96
2018-05-03T02:04:13.109Z,12.93
2018-05-03T02:05:13.161Z,12.89
2018-05-03T02:06:13.236Z,13.02
2018-05-03T02:07:13.256Z,13.00
2018-05-03T02:08:13.302Z,12.99
2018-05-03T02:09:13.350Z,13.07
2018-05-03T02:10:13.398Z,13.02
2018-05-03T02:11:13.476Z,13.03
2018-05-03T02:12:13.523Z,13.07
2018-05-03T02:13:13.545Z,12.99
2018-05-03T02:14:13.591Z,13.00
2018-05-03T02:15:13.638Z,12.99
2018-05-03T02:16:13.689Z,13.03
2018-05-03T02:17:13.759Z,12.99
2018-05-03T02:18:13.782Z,12.95
2018-05-03T02:19:13.830Z,12.95
2018-05-03T02:20:13.882Z,12.92
2018-05-03T02:21:13.930Z,12.95
2018-05-03T02:22:14.015Z,12.87
2018-05-03T02:23:14.024Z,12.84
2018-05-03T02:24:14.074Z,12.77
2018-05-03T02:25:14.122Z,12.71
2018-05-03T02:26:14.168Z,12.78
2018-05-03T02:27:14.250Z,12.69
2018-05-03T02:28:14.272Z,12.85
2018-05-03T02:29:14.313Z,12.79
2018-05-03T02:30:14.361Z,12.78
2018-05-03T02:31:14.413Z,12.79
2018-05-03T02:32:14.482Z,12.79
2018-05-03T02:33:14.531Z,12.75
2018-05-03T02:34:14.556Z,12.79
2018-05-03T02:35:14.605Z,12.75
2018-05-03T02:36:14.651Z,12.67
2018-05-03T02:37:14.700Z,12.66
2018-05-03T02:38:14.771Z,12.69
2018-05-03T02:39:14.799Z,12.63
2018-05-03T02:40:14.843Z,12.69
2018-05-03T02:41:14.892Z,12.59
2018-05-03T02:42:14.942Z,12.69
2018-05-03T02:43:15.029Z,12.62
2018-05-03T02:44:15.036Z,12.63
2018-05-03T02:45:15.083Z,12.52
2018-05-03T02:46:15.680Z,12.70
2018-05-03T02:47:15.190Z,12.52
2018-05-03T02:48:15.251Z,12.52
2018-05-03T02:49:15.277Z,12.62
2018-05-03T02:50:15.352Z,12.59
2018-05-03T02:51:15.372Z,12.60
2018-05-03T02:52:15.428Z,12.63
2018-05-03T02:53:15.470Z,12.60
2018-05-03T02:54:15.517Z,12.54
2018-05-03T02:55:15.592Z,12.66
2018-05-03T02:56:15.612Z,12.56
2018-05-03T02:57:15.660Z,12.63
2018-05-03T02:58:15.710Z,12.64
2018-05-03T02:59:15.780Z,12.51
2018-05-03T03:00:15.808Z,12.49
2018-05-03T03:01:15.852Z,12.52
2018-05-03T03:02:15.922Z,12.51
2018-05-03T03:03:15.949Z,12.60
2018-05-03T03:04:16.032Z,12.48
2018-05-03T03:05:16.046Z,12.69
2018-05-03T03:06:16.119Z,12.54
2018-05-03T03:07:16.140Z,12.59
2018-05-03T03:08:16.191Z,12.70
2018-05-03T03:09:16.239Z,12.64
2018-05-03T03:10:16.312Z,12.62
2018-05-03T03:11:16.338Z,12.69
2018-05-03T03:12:16.404Z,12.64
2018-05-03T03:13:16.429Z,12.69
2018-05-03T03:14:16.480Z,12.77
2018-05-03T03:15:16.524Z,12.67
2018-05-03T03:16:16.623Z,12.69
2018-05-03T03:17:16.623Z,12.71
2018-05-03T03:18:16.671Z,12.71
2018-05-03T03:19:16.717Z,12.70
2018-05-03T03:20:16.768Z,12.71
2018-05-03T03:21:16.836Z,12.79
2018-05-03T03:22:16.885Z,12.70
2018-05-03T03:23:16.914Z,12.66
2018-05-03T03:24:16.959Z,12.62
2018-05-03T03:25:17.006Z,12.56
2018-05-03T03:26:17.055Z,12.59
2018-05-03T03:27:17.138Z,12.54
2018-05-03T03:28:17.150Z,12.44
2018-05-03T03:29:17.206Z,12.44
2018-05-03T03:30:17.246Z,12.51
2018-05-03T03:31:17.293Z,12.56
2018-05-03T03:32:17.369Z,12.54
2018-05-03T03:33:17.419Z,12.42
2018-05-03T03:34:17.438Z,12.39
2018-05-03T03:35:17.489Z,12.38
2018-05-03T03:36:17.533Z,12.54
2018-05-03T03:37:17.581Z,12.42
2018-05-03T03:38:17.652Z,12.51
2018-05-03T03:39:17.676Z,12.42
2018-05-03T03:40:17.727Z,12.42
2018-05-03T03:41:17.775Z,12.60
2018-05-03T03:42:17.823Z,12.51
2018-05-03T03:43:17.892Z,12.52
2018-05-03T03:44:17.920Z,12.56
2018-05-03T03:45:17.966Z,12.57
2018-05-03T03:46:18.016Z,12.54
2018-05-03T03:47:18.061Z,12.54
2018-05-03T03:48:18.140Z,12.52
2018-05-03T03:49:18.180Z,12.52
2018-05-03T03:50:18.205Z,12.42
2018-05-03T03:51:18.253Z,12.37
2018-05-03T03:52:18.302Z,12.30
2018-05-03T03:53:18.394Z,12.42
2018-05-03T03:54:18.422Z,12.39
2018-05-03T03:55:18.447Z,12.41
2018-05-03T03:56:18.501Z,12.44
2018-05-03T03:57:18.545Z,12.39
2018-05-03T03:58:18.592Z,12.30
2018-05-03T03:59:18.661Z,12.39
2018-05-03T04:00:18.718Z,12.41
2018-05-03T04:01:18.734Z,12.29
2018-05-03T04:02:18.780Z,12.24
2018-05-03T04:03:18.829Z,12.30
2018-05-03T04:04:18.919Z,12.29
2018-05-03T04:05:18.927Z,12.34
2018-05-03T04:06:18.973Z,12.27
2018-05-03T04:07:19.028Z,12.33
2018-05-03T04:08:19.071Z,12.37
2018-05-03T04:09:19.140Z,12.31
2018-05-03T04:10:19.165Z,12.45
2018-05-03T04:11:19.213Z,12.48
2018-05-03T04:12:19.262Z,12.51
2018-05-03T04:13:19.319Z,12.42
2018-05-03T04:14:19.380Z,12.49
2018-05-03T04:15:19.432Z,12.60
2018-05-03T04:16:19.453Z,12.56
2018-05-03T04:17:19.500Z,12.57
2018-05-03T04:18:19.548Z,12.57
2018-05-03T04:19:19.597Z,12.51
2018-05-03T04:20:19.673Z,12.41
2018-05-03T04:21:19.697Z,12.64
2018-05-03T04:22:19.847Z,12.41
2018-05-03T04:23:19.789Z,12.49
2018-05-03T04:24:19.837Z,12.39
2018-05-03T04:25:19.922Z,12.44
2018-05-03T04:26:19.936Z,12.46
2018-05-03T04:27:19.992Z,12.39
2018-05-03T04:28:20.030Z,12.38
2018-05-03T04:29:20.077Z,12.31
2018-05-03T04:30:20.159Z,12.42
2018-05-03T04:31:20.175Z,12.34
2018-05-03T04:32:20.221Z,12.38
2018-05-03T04:33:20.271Z,12.39
2018-05-03T04:34:20.317Z,12.44
2018-05-03T04:35:20.392Z,12.37
2018-05-03T04:36:20.437Z,12.39
2018-05-03T04:37:20.461Z,12.33
2018-05-03T04:38:20.511Z,12.41
2018-05-03T04:39:20.559Z,12.41
2018-05-03T04:40:20.605Z,12.38
2018-05-03T04:41:20.677Z,12.49
2018-05-03T04:42:20.703Z,12.51
2018-05-03T04:43:20.753Z,12.39
2018-05-03T04:44:20.799Z,12.49
2018-05-03T04:45:20.852Z,12.41
2018-05-03T04:46:20.930Z,12.41
2018-05-03T04:47:20.940Z,12.37
2018-05-03T04:48:20.989Z,12.38
2018-05-03T04:49:21.040Z,12.41
2018-05-03T04:50:21.084Z,12.38
2018-05-03T04:51:21.171Z,12.48
2018-05-03T04:52:21.180Z,12.34
2018-05-03T04:53:21.229Z,12.42
2018-05-03T04:54:21.276Z,12.48
2018-05-03T04:55:21.327Z,12.38
2018-05-03T04:56:21.397Z,12.34
2018-05-03T04:57:21.422Z,12.37
2018-05-03T04:58:21.496Z,12.34
2018-05-03T04:59:21.515Z,12.34
2018-05-03T05:00:21.566Z,12.37
2018-05-03T05:01:21.616Z,12.39
2018-05-03T05:02:21.661Z,12.39
2018-05-03T05:03:21.732Z,12.38
2018-05-03T05:04:21.765Z,12.49
2018-05-03T05:05:21.804Z,12.49
2018-05-03T05:06:21.852Z,12.39
2018-05-03T05:07:21.901Z,12.38
2018-05-03T05:08:22.001Z,12.42
2018-05-03T05:09:21.997Z,12.37
2018-05-03T05:10:22.045Z,12.34
2018-05-03T05:11:22.094Z,12.48
2018-05-03T05:12:22.216Z,12.27
2018-05-03T05:13:22.212Z,12.33
2018-05-03T05:14:22.267Z,12.33
2018-05-03T05:15:22.291Z,12.38
2018-05-03T05:16:22.333Z,12.27
2018-05-03T05:17:22.392Z,12.34
2018-05-03T05:18:22.464Z,12.37
2018-05-03T05:19:22.540Z,12.34
2018-05-03T05:20:22.524Z,12.41
2018-05-03T05:21:22.573Z,12.42
2018-05-03T05:22:22.625Z,12.39
2018-05-03T05:23:22.671Z,12.39
2018-05-03T05:24:22.757Z,12.38
2018-05-03T05:25:22.766Z,12.38
2018-05-03T05:26:22.812Z,12.38
2018-05-03T05:27:22.861Z,12.44
2018-05-03T05:28:22.908Z,12.45
2018-05-03T05:29:22.978Z,12.52
2018-05-03T05:30:23.031Z,12.44
2018-05-03T05:31:23.051Z,12.41
2018-05-03T05:32:23.106Z,12.51
2018-05-03T05:33:23.148Z,12.45
2018-05-03T05:34:23.195Z,12.48
2018-05-03T05:35:23.283Z,12.51
2018-05-03T05:36:23.294Z,12.48
2018-05-03T05:37:23.343Z,12.45
2018-05-03T05:38:23.412Z,12.49
2018-05-03T05:39:23.434Z,12.44
2018-05-03T05:40:23.507Z,12.51
2018-05-03T05:41:23.558Z,12.41
2018-05-03T05:42:23.580Z,12.57
2018-05-03T05:43:23.637Z,12.51
2018-05-03T05:44:23.735Z,12.54
2018-05-03T05:45:23.726Z,12.49
2018-05-03T05:46:23.797Z,12.51
2018-05-03T05:47:23.819Z,12.46
2018-05-03T05:48:23.868Z,12.49
2018-05-03T05:49:23.915Z,12.46
2018-05-03T05:50:23.964Z,12.51
2018-05-03T05:51:24.034Z,12.46
2018-05-03T05:52:24.062Z,12.60
2018-05-03T05:53:24.109Z,12.64
2018-05-03T05:54:24.153Z,12.59
2018-05-03T05:55:24.211Z,12.64
2018-05-03T05:56:24.279Z,12.59
2018-05-03T05:57:24.297Z,12.63
2018-05-03T05:58:24.346Z,12.62
2018-05-03T05:59:24.394Z,12.71
2018-05-03T06:00:24.442Z,12.67
2018-05-03T06:01:24.521Z,12.78
2018-05-03T06:02:24.543Z,12.62
2018-05-03T06:03:24.609Z,12.67
2018-05-03T06:04:24.642Z,12.78
2018-05-03T06:05:24.682Z,12.71
2018-05-03T06:06:24.732Z,12.74
2018-05-03T06:07:24.784Z,12.79
2018-05-03T06:08:24.850Z,12.64
2018-05-03T06:09:24.876Z,12.81
2018-05-03T06:10:24.992Z,12.63
2018-05-03T06:11:24.994Z,12.75
2018-05-03T06:12:25.034Z,12.66
2018-05-03T06:13:25.068Z,12.66
2018-05-03T06:14:25.113Z,12.81
2018-05-03T06:15:25.161Z,12.77
2018-05-03T06:16:25.243Z,12.63
2018-05-03T06:17:25.262Z,12.64
2018-05-03T06:18:25.330Z,12.59
2018-05-03T06:19:25.355Z,12.75
2018-05-03T06:20:25.403Z,12.69
2018-05-03T06:21:25.484Z,12.71
2018-05-03T06:22:25.500Z,12.67
2018-05-03T06:23:25.547Z,12.71
2018-05-03T06:24:25.624Z,12.82
2018-05-03T06:25:25.643Z,12.81
2018-05-03T06:26:25.713Z,12.84
2018-05-03T06:27:25.743Z,12.82
2018-05-03T06:28:25.786Z,12.81
2018-05-03T06:29:25.839Z,12.81
2018-05-03T06:30:25.913Z,12.77
2018-05-03T06:31:25.931Z,12.81
2018-05-03T06:32:25.981Z,12.79
2018-05-03T06:33:26.039Z,12.88
2018-05-03T06:34:26.078Z,12.84
2018-05-03T06:35:26.148Z,12.79
2018-05-03T06:36:26.181Z,12.89
2018-05-03T06:37:26.246Z,13.00
2018-05-03T06:38:26.269Z,13.06
2018-05-03T06:39:26.317Z,12.99
2018-05-03T06:40:26.386Z,13.00
2018-05-03T06:41:26.411Z,13.03
2018-05-03T06:42:26.483Z,13.06
2018-05-03T06:43:26.518Z,13.11
2018-05-03T06:44:26.557Z,13.07
2018-05-03T06:45:26.609Z,13.12
2018-05-03T06:46:26.680Z,13.18
2018-05-03T06:47:26.700Z,13.20
2018-05-03T06:48:26.749Z,13.22
2018-05-03T06:49:26.801Z,13.21
2018-05-03T06:50:26.851Z,13.33
2018-05-03T06:51:26.951Z,13.38
2018-05-03T06:52:26.944Z,13.36
2018-05-03T06:53:26.993Z,13.36
2018-05-03T06:54:27.037Z,13.32
2018-05-03T06:55:27.094Z,13.33
2018-05-03T06:56:27.159Z,13.36
2018-05-03T06:57:27.183Z,13.37
2018-05-03T06:58:27.255Z,13.37
2018-05-03T06:59:27.280Z,13.43
2018-05-03T07:00:27.342Z,13.44
2018-05-03T07:01:27.376Z,13.46
2018-05-03T07:02:27.450Z,13.52
2018-05-03T07:03:27.501Z,13.46
2018-05-03T07:04:27.585Z,13.51
2018-05-03T07:05:27.577Z,13.52
2018-05-03T07:06:27.616Z,13.51
2018-05-03T07:07:27.666Z,13.55
2018-05-03T07:08:27.743Z,13.46
2018-05-03T07:09:27.765Z,13.56
2018-05-03T07:10:27.836Z,13.71
2018-05-03T07:11:27.862Z,13.52
2018-05-03T07:12:27.909Z,13.58
2018-05-03T07:13:27.981Z,13.63
2018-05-03T07:14:28.005Z,13.65
2018-05-03T07:15:28.053Z,13.67
2018-05-03T07:16:28.101Z,13.55
2018-05-03T07:17:28.151Z,13.63
2018-05-03T07:18:28.229Z,13.65
2018-05-03T07:19:28.252Z,13.61
2018-05-03T07:20:28.296Z,13.69
2018-05-03T07:21:28.345Z,13.56
2018-05-03T07:22:28.392Z,13.74
2018-05-03T07:23:28.470Z,13.74
2018-05-03T07:24:28.488Z,13.70
2018-05-03T07:25:28.542Z,13.77
2018-05-03T07:26:28.586Z,13.77
2018-05-03T07:27:28.633Z,13.83
2018-05-03T07:28:28.723Z,13.84
2018-05-03T07:29:28.799Z,13.89
2018-05-03T07:30:28.781Z,13.95
2018-05-03T07:31:28.827Z,13.98
2018-05-03T07:32:28.877Z,14.01
2018-05-03T07:33:28.960Z,14.01
2018-05-03T07:34:28.972Z,14.06
2018-05-03T07:35:29.028Z,14.01
2018-05-03T07:36:29.070Z,13.96
2018-05-03T07:37:29.120Z,14.02
2018-05-03T07:38:29.190Z,14.09
2018-05-03T07:39:29.218Z,14.13
2018-05-03T07:40:29.291Z,14.14
2018-05-03T07:41:29.317Z,14.19
2018-05-03T07:42:29.372Z,14.09
2018-05-03T07:43:29.410Z,14.12
2018-05-03T07:44:29.458Z,14.02
2018-05-03T07:45:29.558Z,13.99
2018-05-03T07:46:29.557Z,13.99
2018-05-03T07:47:29.608Z,13.99
2018-05-03T07:48:29.713Z,13.96
2018-05-03T07:49:29.705Z,14.01
2018-05-03T07:50:29.778Z,14.09
2018-05-03T07:51:29.825Z,14.09
2018-05-03T07:52:29.851Z,13.96
2018-05-03T07:53:29.897Z,14.01
2018-05-03T07:54:29.948Z,14.04
2018-05-03T07:55:29.996Z,14.13
2018-05-03T07:56:30.070Z,14.12
2018-05-03T07:57:30.101Z,14.13
2018-05-03T07:58:30.140Z,14.20
2018-05-03T07:59:30.196Z,14.21
2018-05-03T08:00:30.238Z,14.20
2018-05-03T08:01:30.313Z,14.25
2018-05-03T08:02:30.335Z,14.29
2018-05-03T08:03:30.386Z,14.27
2018-05-03T08:04:30.433Z,14.39
2018-05-03T08:05:30.484Z,14.39
2018-05-03T08:06:30.553Z,14.43
2018-05-03T08:07:30.585Z,14.57
2018-05-03T08:08:30.631Z,14.57
2018-05-03T08:09:30.676Z,14.57
2018-05-03T08:10:30.725Z,14.67
2018-05-03T08:11:30.808Z,14.69
2018-05-03T08:12:30.824Z,14.74
2018-05-03T08:13:30.882Z,14.86
2018-05-03T08:14:30.925Z,14.86
2018-05-03T08:15:30.971Z,14.88
2018-05-03T08:16:31.059Z,14.94
2018-05-03T08:17:31.073Z,15.05
2018-05-03T08:18:31.154Z,14.99
2018-05-03T08:19:31.166Z,15.02
2018-05-03T08:20:31.214Z,15.02
2018-05-03T08:21:31.268Z,15.02
2018-05-03T08:22:31.316Z,14.95
2018-05-03T08:23:31.388Z,14.98
2018-05-03T08:24:31.414Z,15.02
2018-05-03T08:25:31.465Z,14.98
2018-05-03T08:26:31.513Z,14.94
2018-05-03T08:27:31.559Z,15.02
2018-05-03T08:28:31.677Z,14.98
2018-05-03T08:29:31.661Z,14.95
2018-05-03T08:30:31.705Z,14.93
2018-05-03T08:31:31.762Z,14.93
2018-05-03T08:32:31.804Z,14.91
2018-05-03T08:33:31.877Z,14.95
2018-05-03T08:34:31.902Z,15.01
2018-05-03T08:35:31.952Z,14.99
2018-05-03T08:36:32.000Z,15.02
2018-05-03T08:37:32.053Z,14.95
2018-05-03T08:38:32.123Z,15.08
2018-05-03T08:39:32.172Z,15.09
2018-05-03T08:40:32.200Z,15.12
2018-05-03T08:41:32.247Z,15.11
2018-05-03T08:42:32.295Z,15.20
2018-05-03T08:43:32.345Z,15.23
2018-05-03T08:44:32.423Z,15.36
2018-05-03T08:45:32.469Z,15.31
2018-05-03T08:46:32.496Z,15.38
2018-05-03T08:47:32.542Z,15.31
2018-05-03T08:48:32.596Z,15.36
2018-05-03T08:49:32.643Z,15.35
2018-05-03T08:50:32.713Z,15.45
2018-05-03T08:51:32.739Z,15.60
2018-05-03T08:52:32.795Z,15.52
2018-05-03T08:53:32.839Z,15.54
2018-05-03T08:54:32.888Z,15.54
2018-05-03T08:55:32.993Z,15.56
2018-05-03T08:56:32.988Z,15.60
2018-05-03T08:57:33.041Z,15.66
2018-05-03T08:58:33.086Z,15.84
2018-05-03T08:59:33.136Z,15.89
2018-05-03T09:00:33.225Z,15.96
2018-05-03T09:01:33.262Z,16.03
2018-05-03T09:02:33.302Z,16.04
2018-05-03T09:03:33.332Z,16.04
2018-05-03T09:04:33.381Z,16.12
2018-05-03T09:05:33.471Z,16.06
2018-05-03T09:06:33.477Z,16.04
2018-05-03T09:07:33.579Z,16.06
2018-05-03T09:08:33.590Z,16.20
2018-05-03T09:09:33.638Z,16.22
2018-05-03T09:10:33.711Z,16.30
2018-05-03T09:11:33.735Z,16.30
2018-05-03T09:12:33.781Z,16.45
2018-05-03T09:13:33.830Z,16.53
2018-05-03T09:14:33.879Z,16.70
2018-05-03T09:15:33.955Z,16.80
2018-05-03T09:16:33.983Z,16.80
2018-05-03T09:17:34.059Z,16.89
2018-05-03T09:18:34.080Z,16.96
2018-05-03T09:19:34.130Z,17.00
2018-05-03T09:20:34.179Z,16.99
2018-05-03T09:21:34.230Z,16.92
2018-05-03T09:22:34.301Z,16.95
2018-05-03T09:23:34.326Z,16.99
2018-05-03T09:24:35.243Z,16.96
2018-05-03T09:25:34.427Z,16.90
2018-05-03T09:26:34.483Z,16.90
2018-05-03T09:27:34.562Z,16.90
2018-05-03T09:28:34.577Z,16.75
2018-05-03T09:29:34.630Z,16.81
2018-05-03T09:30:34.679Z,16.92
2018-05-03T09:31:34.730Z,17.06
2018-05-03T09:32:34.809Z,17.25
2018-05-03T09:33:34.831Z,17.36
2018-05-03T09:34:34.880Z,17.66
2018-05-03T09:35:34.929Z,17.67
2018-05-03T09:36:34.981Z,17.78
2018-05-03T09:37:35.054Z,17.85
2018-05-03T09:38:35.124Z,17.85
2018-05-03T09:39:35.133Z,17.99
2018-05-03T09:40:35.180Z,18.03
2018-05-03T09:41:35.234Z,18.17
2018-05-03T09:42:35.283Z,18.25
2018-05-03T09:43:35.371Z,18.18
2018-05-03T09:44:35.384Z,18.15
2018-05-03T09:45:35.436Z,18.07
2018-05-03T09:46:35.485Z,18.02
2018-05-03T09:47:35.535Z,17.99
2018-05-03T09:48:35.616Z,18.00
2018-05-03T09:49:35.637Z,17.92
2018-05-03T09:50:35.689Z,18.18
2018-05-03T09:51:35.752Z,18.19
2018-05-03T09:52:35.828Z,18.21
2018-05-03T09:53:35.877Z,18.29
2018-05-03T09:54:35.937Z,18.21
2018-05-03T09:55:35.944Z,18.22
2018-05-03T09:56:35.995Z,18.31
2018-05-03T09:57:36.049Z,18.40
2018-05-03T09:58:36.095Z,18.39
2018-05-03T09:59:36.172Z,18.47
2018-05-03T10:00:36.198Z,18.47
2018-05-03T10:01:36.250Z,18.59
2018-05-03T10:02:36.300Z,18.62
2018-05-03T10:03:36.351Z,18.67
2018-05-03T10:04:36.428Z,18.73
2018-05-03T10:05:36.458Z,18.76
2018-05-03T10:06:36.529Z,18.67
2018-05-03T10:07:36.556Z,18.74
2018-05-03T10:08:36.610Z,18.73
2018-05-03T10:09:36.684Z,18.84
2018-05-03T10:10:36.710Z,19.13
2018-05-03T10:11:36.764Z,19.14
2018-05-03T10:12:36.820Z,19.14
2018-05-03T10:13:36.873Z,19.11
2018-05-03T10:14:37.020Z,19.05
2018-05-03T10:15:36.968Z,18.97
2018-05-03T10:16:37.052Z,18.91
2018-05-03T10:17:37.072Z,18.80
2018-05-03T10:18:37.128Z,18.94
2018-05-03T10:19:37.174Z,18.86
2018-05-03T10:20:37.226Z,18.86
2018-05-03T10:21:37.305Z,18.70
2018-05-03T10:22:37.396Z,18.77
2018-05-03T10:23:37.381Z,18.84
2018-05-03T10:24:37.434Z,18.80
2018-05-03T10:25:37.487Z,18.82
2018-05-03T10:26:37.576Z,18.87
2018-05-03T10:27:37.592Z,18.83
2018-05-03T10:28:37.641Z,18.83
2018-05-03T10:29:37.692Z,18.82
2018-05-03T10:30:37.743Z,18.91
2018-05-03T10:31:37.824Z,18.99
2018-05-03T10:32:37.857Z,19.10
2018-05-03T10:33:37.897Z,19.13
2018-05-03T10:34:37.952Z,19.14
2018-05-03T10:35:38.076Z,19.13
2018-05-03T10:36:38.091Z,19.10
2018-05-03T10:37:38.111Z,19.10
2018-05-03T10:38:38.155Z,19.15
2018-05-03T10:39:38.210Z,19.15
2018-05-03T10:40:38.261Z,19.11
2018-05-03T10:41:38.341Z,19.10
2018-05-03T10:42:38.363Z,18.84
2018-05-03T10:43:38.439Z,18.86
2018-05-03T10:44:38.470Z,18.80
2018-05-03T10:45:38.521Z,18.79
2018-05-03T10:46:38.570Z,18.95
2018-05-03T10:47:38.645Z,19.08
2018-05-03T10:48:38.784Z,19.23
2018-05-03T10:49:38.725Z,19.28
2018-05-03T10:50:38.796Z,19.29
2018-05-03T10:51:38.828Z,19.35
2018-05-03T10:52:38.882Z,19.38
2018-05-03T10:53:38.964Z,19.36
2018-05-03T10:54:38.983Z,19.42
2018-05-03T10:55:39.039Z,19.66
2018-05-03T10:56:39.086Z,19.80
2018-05-03T10:57:39.139Z,19.86
2018-05-03T10:58:39.230Z,19.84
2018-05-03T10:59:39.245Z,19.72
2018-05-03T11:00:39.296Z,20.03
2018-05-03T11:01:39.348Z,20.20
2018-05-03T11:02:39.399Z,20.21
2018-05-03T11:03:39.482Z,20.12
2018-05-03T11:04:39.505Z,20.15
2018-05-03T11:05:39.557Z,20.06
2018-05-03T11:06:39.607Z,19.88
2018-05-03T11:07:39.661Z,19.91
2018-05-03T11:08:39.750Z,19.94
2018-05-03T11:09:39.767Z,19.98
2018-05-03T11:10:39.820Z,19.97
2018-05-03T11:11:39.871Z,20.08
2018-05-03T11:12:39.922Z,20.06
2018-05-03T11:13:40.001Z,20.08
2018-05-03T11:14:40.077Z,20.00
2018-05-03T11:15:40.078Z,19.98
2018-05-03T11:16:40.144Z,19.88
2018-05-03T11:17:40.185Z,19.93
2018-05-03T11:18:40.241Z,19.93
2018-05-03T11:19:40.319Z,19.98
2018-05-03T11:20:40.340Z,19.94
2018-05-03T11:21:40.392Z,19.88
2018-05-03T11:22:40.442Z,19.91
2018-05-03T11:23:40.499Z,20.12
2018-05-03T11:24:40.587Z,20.25
2018-05-03T11:25:40.600Z,20.10
2018-05-03T11:26:40.652Z,20.21
2018-05-03T11:27:40.706Z,20.20
2018-05-03T11:28:40.756Z,20.30
2018-05-03T11:29:40.849Z,20.33
2018-05-03T11:30:40.866Z,20.28
2018-05-03T11:31:40.920Z,20.24
2018-05-03T11:32:40.967Z,20.41
2018-05-03T11:33:41.030Z,20.79
2018-05-03T11:34:41.095Z,20.93
2018-05-03T11:35:41.128Z,20.96
2018-05-03T11:36:41.191Z,20.87
2018-05-03T11:37:41.306Z,20.80
2018-05-03T11:38:41.285Z,20.74
2018-05-03T11:39:41.359Z,20.41
2018-05-03T11:40:41.414Z,20.34
2018-05-03T11:41:41.450Z,20.49
2018-05-03T11:42:41.500Z,20.34
2018-05-03T11:43:41.552Z,20.47
2018-05-03T11:44:41.603Z,20.65
2018-05-03T11:45:41.678Z,20.81
2018-05-03T11:46:41.706Z,20.93
2018-05-03T11:47:41.761Z,21.51
2018-05-03T11:48:41.836Z,21.91
2018-05-03T11:49:41.865Z,22.31
2018-05-03T11:50:41.949Z,22.46
2018-05-03T11:51:41.971Z,22.72
2018-05-03T11:52:42.028Z,22.90
2018-05-03T11:53:42.078Z,22.92
2018-05-03T11:54:42.138Z,22.75
2018-05-03T11:55:42.225Z,22.46
2018-05-03T11:56:42.241Z,22.44
2018-05-03T11:57:42.296Z,22.54
2018-05-03T11:58:42.349Z,22.53
2018-05-03T11:59:42.411Z,22.59
2018-05-03T12:00:42.503Z,22.54
2018-05-03T12:01:42.515Z,22.54
2018-05-03T12:02:42.566Z,22.60
2018-05-03T12:03:42.623Z,22.39
2018-05-03T12:04:42.680Z,22.27
2018-05-03T12:05:42.756Z,21.81
2018-05-03T12:06:42.818Z,21.51
2018-05-03T12:07:42.840Z,21.21
2018-05-03T12:08:42.894Z,21.01
2018-05-03T12:09:42.950Z,20.98
2018-05-03T12:10:43.003Z,20.83
2018-05-03T12:11:43.192Z,20.69
2018-05-03T12:12:43.115Z,20.66
2018-05-03T12:13:43.166Z,20.93
2018-05-03T12:14:43.225Z,21.11
2018-05-03T12:15:43.275Z,21.39
2018-05-03T12:16:43.350Z,21.74
2018-05-03T12:17:43.407Z,21.94
2018-05-03T12:18:43.436Z,22.28
2018-05-03T12:19:43.487Z,22.77
2018-05-03T12:20:43.542Z,22.89
2018-05-03T12:21:43.597Z,23.27
2018-05-03T12:22:43.697Z,23.27
2018-05-03T12:23:43.705Z,23.52
2018-05-03T12:24:43.761Z,23.40
2018-05-03T12:25:43.817Z,23.46
2018-05-03T12:26:43.869Z,23.61
2018-05-03T12:27:43.951Z,23.72
2018-05-03T12:28:43.984Z,23.94
2018-05-03T12:29:44.036Z,23.53
2018-05-03T12:30:44.091Z,23.12
2018-05-03T12:31:44.153Z,22.44
2018-05-03T12:32:44.227Z,22.13
2018-05-03T12:33:44.285Z,22.07
2018-05-03T12:34:44.314Z,22.01
2018-05-03T12:35:44.369Z,21.94
2018-05-03T12:36:44.426Z,21.72
2018-05-03T12:37:44.481Z,21.79
2018-05-03T12:38:44.564Z,21.63
2018-05-03T12:39:44.594Z,21.42
2018-05-03T12:40:44.655Z,21.26
2018-05-03T12:41:44.706Z,21.27
2018-05-03T12:42:44.782Z,21.32
2018-05-03T12:43:44.814Z,21.32
2018-05-03T12:44:44.908Z,21.23
2018-05-03T12:45:44.924Z,21.41
2018-05-03T12:46:44.974Z,21.48
2018-05-03T12:47:45.030Z,21.46
2018-05-03T12:48:45.109Z,21.38
2018-05-03T12:49:45.138Z,21.41
2018-05-03T12:50:45.215Z,21.45
2018-05-03T12:51:45.260Z,21.53
2018-05-03T12:52:45.299Z,21.41